createdAt,value
2018-08-19T00:01:00.620Z,5.30
2018-08-19T00:03:30.301Z,5.50
2018-08-19T00:05:59.643Z,5.27
2018-08-19T00:08:29.220Z,5.60
2018-08-19T00:11:06.189Z,6.13
2018-08-19T00:13:36.355Z,5.67
2018-08-19T00:16:06.049Z,5.50
2018-08-19T00:18:36.763Z,5.87
2018-08-19T00:21:09.713Z,5.80
2018-08-19T00:23:44.239Z,6.20
2018-08-19T00:26:14.747Z,5.67
2018-08-19T00:28:43.818Z,5.90
2018-08-19T00:31:13.165Z,5.60
2018-08-19T00:33:42.518Z,5.67
2018-08-19T00:36:25.284Z,5.63
2018-08-19T00:38:55.272Z,5.70
2018-08-19T00:41:25.040Z,5.43
2018-08-19T00:43:54.111Z,5.00
2018-08-19T00:46:29.107Z,5.93
2018-08-19T00:48:58.805Z,5.40
2018-08-19T00:51:28.702Z,5.90
2018-08-19T00:53:58.302Z,6.00
2018-08-19T00:56:27.620Z,6.87
2018-08-19T00:58:57.466Z,6.27
2018-08-19T01:01:35.895Z,6.87
2018-08-19T01:04:07.464Z,5.10
2018-08-19T01:06:41.757Z,6.30
2018-08-19T01:09:11.389Z,5.53
2018-08-19T01:11:42.709Z,5.23
2018-08-19T01:14:14.435Z,5.17
2018-08-19T01:16:43.937Z,5.73
2018-08-19T01:19:13.659Z,6.20
2018-08-19T01:21:44.068Z,6.00
2018-08-19T01:24:13.349Z,6.33
2018-08-19T01:26:43.212Z,6.47
2018-08-19T01:29:12.745Z,7.03
2018-08-19T01:31:42.338Z,6.87
2018-08-19T01:34:13.262Z,6.10
2018-08-19T01:36:42.998Z,5.80
2018-08-19T01:39:13.448Z,5.80
2018-08-19T01:41:43.306Z,5.63
2018-08-19T01:44:14.306Z,6.73
2018-08-19T01:46:46.490Z,6.50
2018-08-19T01:49:15.612Z,6.10
2018-08-19T01:51:47.240Z,5.47
2018-08-19T01:54:23.550Z,6.83
2018-08-19T01:56:54.829Z,6.27
2018-08-19T01:59:26.105Z,6.30
2018-08-19T02:01:59.276Z,6.20
2018-08-19T02:04:28.476Z,6.20
2018-08-19T02:06:57.628Z,5.90
2018-08-19T02:09:26.735Z,5.40
2018-08-19T02:11:57.240Z,6.70
2018-08-19T02:14:26.699Z,6.13
2018-08-19T02:16:56.945Z,7.30
2018-08-19T02:19:26.577Z,6.47
2018-08-19T02:21:55.956Z,7.70
2018-08-19T02:24:25.822Z,6.67
2018-08-19T02:26:54.923Z,5.80
2018-08-19T02:29:35.203Z,6.63
2018-08-19T02:32:05.631Z,5.93
2018-08-19T02:34:36.256Z,6.90
2018-08-19T02:37:15.555Z,7.00
2018-08-19T02:39:47.050Z,6.03
2018-08-19T02:42:27.554Z,6.27
2018-08-19T02:45:03.560Z,6.33
2018-08-19T02:47:33.742Z,6.20
2018-08-19T02:50:03.105Z,6.47
2018-08-19T02:52:35.415Z,7.20
2018-08-19T02:55:06.082Z,7.60
2018-08-19T02:57:36.420Z,6.33
2018-08-19T03:00:06.310Z,5.50
2018-08-19T03:02:37.809Z,6.70
2018-08-19T03:05:11.183Z,6.63
2018-08-19T03:07:40.638Z,6.80
2018-08-19T03:10:11.592Z,6.77
2018-08-19T03:12:41.336Z,6.00
2018-08-19T03:15:11.906Z,7.20
2018-08-19T03:17:42.137Z,6.43
2018-08-19T03:20:13.659Z,6.93
2018-08-19T03:22:43.291Z,6.03
2018-08-19T03:25:12.907Z,5.90
2018-08-19T03:27:42.172Z,6.60
2018-08-19T03:30:13.150Z,7.17
2018-08-19T03:32:47.047Z,6.97
2018-08-19T03:35:16.783Z,6.57
2018-08-19T03:37:46.181Z,6.93
2018-08-19T03:40:15.580Z,7.13
2018-08-19T03:42:44.903Z,6.47
2018-08-19T03:45:20.381Z,6.80
2018-08-19T03:47:50.854Z,6.30
2018-08-19T03:50:27.548Z,6.60
2018-08-19T03:52:57.508Z,6.90
2018-08-19T03:55:30.038Z,7.40
2018-08-19T03:58:03.381Z,6.30
2018-08-19T04:00:35.010Z,7.30
2018-08-19T04:03:26.542Z,6.60
2018-08-19T04:06:00.515Z,6.30
2018-08-19T04:08:34.984Z,7.07
2018-08-19T04:11:07.477Z,6.63
2018-08-19T04:13:41.718Z,6.77
2018-08-19T04:16:12.012Z,5.90
2018-08-19T04:18:43.498Z,7.37
2018-08-19T04:21:15.077Z,6.30
2018-08-19T04:23:46.971Z,6.50
2018-08-19T04:26:16.822Z,7.10
2018-08-19T04:28:46.905Z,6.80
2018-08-19T04:31:21.246Z,6.37
2018-08-19T04:33:50.646Z,6.93
2018-08-19T04:36:20.961Z,6.17
2018-08-19T04:38:50.119Z,6.67
2018-08-19T04:41:19.434Z,6.83
2018-08-19T04:43:48.933Z,6.40
2018-08-19T04:46:17.920Z,6.70
2018-08-19T04:48:48.188Z,5.93
2018-08-19T04:51:17.242Z,6.90
2018-08-19T04:53:46.314Z,5.93
2018-08-19T04:56:15.380Z,6.60
2018-08-19T04:58:44.512Z,6.20
2018-08-19T05:01:13.776Z,6.63
2018-08-19T05:03:44.929Z,6.40
2018-08-19T05:06:14.197Z,6.57
2018-08-19T05:08:43.311Z,6.03
2018-08-19T05:11:12.296Z,6.13
2018-08-19T05:13:41.288Z,6.57
2018-08-19T05:16:10.377Z,6.70
2018-08-19T05:18:39.377Z,6.60
2018-08-19T05:21:13.478Z,7.33
2018-08-19T05:23:42.562Z,6.53
2018-08-19T05:26:13.511Z,6.97
2018-08-19T05:28:45.713Z,6.40
2018-08-19T05:31:14.820Z,5.67
2018-08-19T05:33:44.195Z,6.23
2018-08-19T05:36:13.208Z,7.03
2018-08-19T05:38:42.915Z,6.17
2018-08-19T05:41:12.221Z,5.00
2018-08-19T05:43:41.743Z,6.47
2018-08-19T05:46:10.827Z,6.10
2018-08-19T05:48:40.179Z,6.87
2018-08-19T05:51:10.947Z,5.40
2018-08-19T05:53:45.033Z,6.77
2018-08-19T05:56:14.400Z,6.97
2018-08-19T05:58:43.422Z,6.97
2018-08-19T06:01:16.642Z,6.80
2018-08-19T06:03:45.922Z,7.23
2018-08-19T06:06:15.441Z,6.73
2018-08-19T06:08:45.023Z,7.40
2018-08-19T06:11:14.427Z,8.93
2018-08-19T06:13:43.898Z,9.80
2018-08-19T06:16:13.280Z,9.77
2018-08-19T06:18:42.812Z,10.10
2018-08-19T06:21:12.017Z,9.30
2018-08-19T06:23:41.979Z,10.10
2018-08-19T06:26:11.646Z,8.67
2018-08-19T06:28:40.900Z,10.73
2018-08-19T06:31:10.229Z,9.20
2018-08-19T06:33:39.723Z,9.43
2018-08-19T06:36:10.371Z,9.67
2018-08-19T06:38:39.831Z,9.00
2018-08-19T06:41:09.230Z,9.53
2018-08-19T06:43:38.538Z,8.60
2018-08-19T06:46:07.904Z,8.63
2018-08-19T06:48:36.959Z,8.67
2018-08-19T06:51:06.313Z,8.33
2018-08-19T06:53:38.249Z,8.07
2018-08-19T06:56:08.937Z,8.43
2018-08-19T06:58:38.386Z,8.90
2018-08-19T07:01:08.114Z,8.50
2018-08-19T07:03:39.970Z,7.70
2018-08-19T07:06:11.093Z,8.03
2018-08-19T07:08:40.588Z,7.80
2018-08-19T07:11:09.773Z,9.23
2018-08-19T07:13:38.938Z,8.17
2018-08-19T07:16:07.993Z,8.23
2018-08-19T07:18:38.302Z,9.03
2018-08-19T07:21:07.342Z,6.93
2018-08-19T07:23:36.638Z,8.37
2018-08-19T07:26:05.815Z,9.20
2018-08-19T07:28:34.892Z,7.17
2018-08-19T07:31:04.028Z,9.80
2018-08-19T07:33:33.586Z,7.00
2018-08-19T07:36:02.868Z,7.00
2018-08-19T07:38:32.166Z,6.97
2018-08-19T07:41:01.323Z,8.33
2018-08-19T07:43:30.468Z,7.17
2018-08-19T07:46:00.013Z,6.97
2018-08-19T07:48:29.083Z,10.73
2018-08-19T07:50:58.207Z,11.40
2018-08-19T07:53:27.324Z,9.07
2018-08-19T07:55:56.942Z,7.60
2018-08-19T07:58:37.176Z,6.50
2018-08-19T08:01:06.594Z,6.30
2018-08-19T08:03:36.994Z,6.70
2018-08-19T08:06:06.349Z,7.07
2018-08-19T08:08:36.048Z,7.43
2018-08-19T08:11:05.377Z,6.63
2018-08-19T08:13:34.736Z,6.53
2018-08-19T08:16:04.612Z,5.83
2018-08-19T08:18:34.226Z,5.73
2018-08-19T08:21:08.749Z,6.20
2018-08-19T08:23:38.156Z,4.80
2018-08-19T08:26:07.152Z,6.13
2018-08-19T08:28:36.252Z,5.77
2018-08-19T08:31:08.382Z,7.00
2018-08-19T08:33:40.437Z,6.50
2018-08-19T08:36:10.848Z,6.33
2018-08-19T08:38:41.980Z,6.67
2018-08-19T08:41:11.326Z,6.73
2018-08-19T08:43:40.319Z,5.93
2018-08-19T08:46:09.339Z,5.80
2018-08-19T08:48:38.424Z,5.83
2018-08-19T08:51:07.456Z,4.80
2018-08-19T08:53:41.421Z,5.10
2018-08-19T08:56:10.527Z,5.53
2018-08-19T08:58:39.733Z,5.00
2018-08-19T09:01:08.750Z,5.57
2018-08-19T09:03:37.797Z,5.50
2018-08-19T09:06:15.706Z,6.40
2018-08-19T09:08:44.765Z,6.50
2018-08-19T09:11:13.809Z,5.70
2018-08-19T09:13:42.889Z,5.60
2018-08-19T09:16:12.261Z,5.90
2018-08-19T09:18:41.716Z,4.87
2018-08-19T09:21:11.222Z,5.20
2018-08-19T09:23:40.763Z,4.83
2018-08-19T09:26:10.021Z,4.27
2018-08-19T09:28:39.571Z,4.90
2018-08-19T09:31:09.448Z,4.77
2018-08-19T09:33:39.250Z,5.30
2018-08-19T09:36:08.722Z,5.17
2018-08-19T09:38:38.135Z,5.83
2018-08-19T09:41:07.554Z,5.03
2018-08-19T09:43:37.003Z,4.80
2018-08-19T09:46:06.715Z,5.33
2018-08-19T09:48:36.194Z,5.20
2018-08-19T09:51:10.531Z,4.30
2018-08-19T09:53:40.309Z,4.37
2018-08-19T09:56:10.611Z,5.47
2018-08-19T09:58:40.586Z,3.77
2018-08-19T10:01:15.000Z,5.07
2018-08-19T10:03:44.405Z,4.30
2018-08-19T10:06:14.658Z,4.93
2018-08-19T10:08:44.030Z,4.27
2018-08-19T10:11:13.376Z,5.40
2018-08-19T10:13:42.834Z,4.63
2018-08-19T10:16:12.372Z,3.90
2018-08-19T10:18:41.832Z,4.23
2018-08-19T10:21:16.398Z,4.23
2018-08-19T10:23:45.823Z,3.90
2018-08-19T10:26:15.066Z,3.60
2018-08-19T10:28:44.514Z,4.47
2018-08-19T10:31:19.284Z,4.37
2018-08-19T10:33:51.212Z,3.77
2018-08-19T10:36:20.714Z,3.30
2018-08-19T10:38:49.992Z,3.13
2018-08-19T10:41:19.519Z,3.13
2018-08-19T10:43:48.792Z,3.30
2018-08-19T10:46:18.543Z,4.03
2018-08-19T10:48:49.552Z,4.40
2018-08-19T10:51:19.066Z,3.50
2018-08-19T10:53:48.476Z,3.20
2018-08-19T10:56:17.863Z,4.40
2018-08-19T10:58:57.575Z,2.70
2018-08-19T11:01:27.187Z,3.43
2018-08-19T11:03:56.599Z,3.80
2018-08-19T11:06:26.313Z,3.20
2018-08-19T11:08:57.944Z,3.00
2018-08-19T11:11:32.322Z,5.07
2018-08-19T11:14:03.530Z,4.17
2018-08-19T11:16:32.932Z,3.10
2018-08-19T11:19:02.409Z,3.40
2018-08-19T11:24:26.741Z,3.53
2018-08-19T11:27:01.787Z,3.07
2018-08-19T11:29:33.905Z,2.50
2018-08-19T11:32:03.378Z,2.60
2018-08-19T11:34:32.755Z,2.83
2018-08-19T11:37:02.164Z,2.93
2018-08-19T11:39:36.509Z,2.60
2018-08-19T11:42:05.826Z,2.40
2018-08-19T11:44:36.128Z,2.87
2018-08-19T11:47:05.421Z,2.53
2018-08-19T11:49:34.944Z,2.73
2018-08-19T11:52:05.266Z,3.27
2018-08-19T11:54:35.208Z,2.80
2018-08-19T11:57:12.715Z,2.93
2018-08-19T11:59:44.205Z,2.67
2018-08-19T12:02:17.078Z,2.90
2018-08-19T12:04:46.928Z,2.30
2018-08-19T12:07:16.637Z,2.67
2018-08-19T12:10:01.358Z,2.73
2018-08-19T12:12:46.049Z,2.67
2018-08-19T12:15:16.502Z,2.33
2018-08-19T12:17:46.227Z,2.90
2018-08-19T12:20:23.314Z,3.00
2018-08-19T12:22:53.019Z,2.80
2018-08-19T12:25:22.438Z,2.57
2018-08-19T12:27:51.559Z,3.50
2018-08-19T12:30:20.647Z,2.60
2018-08-19T12:32:49.852Z,2.10
2018-08-19T12:35:19.365Z,3.07
2018-08-19T12:37:49.223Z,2.70
2018-08-19T12:40:18.474Z,3.30
2018-08-19T12:42:53.784Z,2.90
2018-08-19T12:45:24.389Z,2.67
2018-08-19T12:47:53.915Z,1.93
2018-08-19T12:50:24.697Z,2.63
2018-08-19T12:52:54.044Z,2.50
2018-08-19T12:55:23.326Z,2.40
2018-08-19T12:58:01.773Z,3.00
2018-08-19T13:00:31.154Z,3.20
2018-08-19T13:03:00.453Z,2.77
2018-08-19T13:05:29.858Z,2.97
2018-08-19T13:07:59.543Z,2.37
2018-08-19T13:10:39.181Z,2.60
2018-08-19T13:13:08.576Z,2.90
2018-08-19T13:15:37.987Z,2.50
2018-08-19T13:18:07.365Z,2.40
2018-08-19T13:20:36.578Z,2.63
2018-08-19T13:23:06.291Z,2.80
2018-08-19T13:25:35.684Z,2.50
2018-08-19T13:28:05.261Z,2.50
2018-08-19T13:30:34.641Z,2.50
2018-08-19T13:33:04.343Z,2.27
2018-08-19T13:35:33.816Z,2.53
2018-08-19T13:38:03.168Z,2.17
2018-08-19T13:40:32.572Z,2.30
2018-08-19T13:43:02.209Z,2.40
2018-08-19T13:45:31.833Z,2.70
2018-08-19T13:48:00.928Z,2.87
2018-08-19T13:50:29.936Z,2.40
2018-08-19T13:52:58.996Z,2.37
2018-08-19T13:55:28.837Z,2.47
2018-08-19T13:57:57.997Z,2.10
2018-08-19T14:00:33.202Z,2.37
2018-08-19T14:03:02.678Z,2.30
2018-08-19T14:05:32.129Z,2.93
2018-08-19T14:08:01.549Z,2.13
2018-08-19T14:10:30.859Z,2.60
2018-08-19T14:13:00.243Z,2.20
2018-08-19T14:15:29.431Z,2.33
2018-08-19T14:17:58.508Z,2.20
2018-08-19T14:20:27.738Z,2.70
2018-08-19T14:22:56.790Z,2.73
2018-08-19T14:25:25.822Z,2.63
2018-08-19T14:27:54.775Z,2.90
2018-08-19T14:30:24.102Z,2.40
2018-08-19T14:32:53.096Z,2.53
2018-08-19T14:35:22.174Z,2.83
2018-08-19T14:37:51.170Z,2.57
2018-08-19T14:40:20.386Z,3.27
2018-08-19T14:42:50.466Z,2.53
2018-08-19T14:45:19.547Z,2.97
2018-08-19T14:47:49.726Z,2.63
2018-08-19T14:50:20.350Z,2.97
2018-08-19T14:52:49.615Z,3.00
2018-08-19T14:55:19.739Z,2.27
2018-08-19T14:57:49.827Z,2.80
2018-08-19T15:00:19.255Z,3.23
2018-08-19T15:02:48.673Z,2.73
2018-08-19T15:05:20.744Z,3.30
2018-08-19T15:07:50.377Z,3.10
2018-08-19T15:10:22.589Z,2.50
2018-08-19T15:12:51.942Z,3.60
2018-08-19T15:15:21.101Z,3.27
2018-08-19T15:17:57.156Z,2.57
2018-08-19T15:20:35.893Z,3.20
2018-08-19T15:23:20.189Z,2.57
2018-08-19T15:25:49.595Z,2.83
2018-08-19T15:28:19.159Z,2.50
2018-08-19T15:30:48.245Z,2.90
2018-08-19T15:33:17.716Z,3.00
2018-08-19T15:35:47.253Z,2.63
2018-08-19T15:38:16.629Z,3.10
2018-08-19T15:40:48.864Z,2.63
2018-08-19T15:43:18.566Z,2.77
2018-08-19T15:45:47.894Z,3.37
2018-08-19T15:48:17.518Z,3.20
2018-08-19T15:50:46.749Z,3.07
2018-08-19T15:53:17.831Z,3.17
2018-08-19T15:55:47.245Z,3.20
2018-08-19T15:58:16.847Z,3.17
2018-08-19T16:00:46.312Z,3.57
2018-08-19T16:03:15.781Z,2.77
2018-08-19T16:05:44.827Z,2.80
2018-08-19T16:08:13.985Z,3.40
2018-08-19T16:10:43.897Z,3.73
2018-08-19T16:13:13.596Z,2.97
2018-08-19T16:15:43.007Z,3.13
2018-08-19T16:18:12.125Z,2.97
2018-08-19T16:20:44.612Z,3.00
2018-08-19T16:23:13.941Z,3.23
2018-08-19T16:25:43.236Z,3.83
2018-08-19T16:28:12.548Z,3.10
2018-08-19T16:30:41.572Z,4.03
2018-08-19T16:33:11.270Z,3.30
2018-08-19T16:35:41.266Z,4.10
2018-08-19T16:38:10.483Z,3.23
2018-08-19T16:40:39.888Z,8.60
2018-08-19T16:43:09.099Z,6.70
2018-08-19T16:45:38.234Z,6.40
2018-08-19T16:48:07.564Z,3.37
2018-08-19T16:50:36.687Z,3.60
2018-08-19T16:53:05.677Z,3.70
2018-08-19T16:55:34.714Z,4.00
2018-08-19T16:58:03.766Z,3.60
2018-08-19T17:00:32.979Z,3.37
2018-08-19T17:03:03.065Z,3.70
2018-08-19T17:05:34.251Z,3.63
2018-08-19T17:08:03.494Z,3.30
2018-08-19T17:10:33.185Z,3.50
2018-08-19T17:13:03.268Z,4.40
2018-08-19T17:15:32.644Z,4.13
2018-08-19T17:18:02.274Z,3.53
2018-08-19T17:20:31.821Z,4.70
2018-08-19T17:23:01.359Z,4.30
2018-08-19T17:25:30.978Z,4.47
2018-08-19T17:28:05.780Z,4.17
2018-08-19T17:30:35.185Z,4.57
2018-08-19T17:33:08.772Z,4.17
2018-08-19T17:35:39.924Z,4.10
2018-08-19T17:38:09.749Z,3.93
2018-08-19T17:40:39.125Z,4.07
2018-08-19T17:43:08.267Z,4.23
2018-08-19T17:45:37.465Z,9.50
2018-08-19T17:48:06.540Z,4.97
2018-08-19T17:50:37.997Z,4.77
2018-08-19T17:53:07.921Z,4.30
2018-08-19T17:55:36.955Z,4.70
2018-08-19T17:58:06.237Z,10.93
2018-08-19T18:00:35.654Z,6.10
2018-08-19T18:03:05.240Z,6.47
2018-08-19T18:05:34.713Z,5.40
2018-08-19T18:08:04.037Z,5.70
2018-08-19T18:10:33.413Z,5.17
2018-08-19T18:13:02.813Z,5.10
2018-08-19T18:15:32.361Z,6.23
2018-08-19T18:18:05.714Z,5.17
2018-08-19T18:20:36.606Z,4.50
2018-08-19T18:23:12.974Z,4.70
2018-08-19T18:25:43.748Z,5.47
2018-08-19T18:28:16.942Z,5.53
2018-08-19T18:30:48.929Z,4.60
2018-08-19T18:33:18.055Z,5.17
2018-08-19T18:35:47.306Z,5.03
2018-08-19T18:38:27.941Z,5.13
2018-08-19T18:40:58.296Z,5.70
2018-08-19T18:43:27.785Z,6.20
2018-08-19T18:45:57.391Z,5.20
2018-08-19T18:48:26.743Z,5.43
2018-08-19T18:50:56.955Z,5.20
2018-08-19T18:53:28.294Z,5.50
2018-08-19T18:55:57.901Z,5.90
2018-08-19T18:58:28.189Z,5.93
2018-08-19T19:01:00.986Z,5.50
2018-08-19T19:03:30.323Z,5.50
2018-08-19T19:05:59.424Z,5.33
2018-08-19T19:08:28.506Z,5.67
2018-08-19T19:11:02.611Z,5.57
2018-08-19T19:13:31.794Z,6.23
2018-08-19T19:16:01.048Z,5.70
2018-08-19T19:18:30.357Z,6.10
2018-08-19T19:21:03.416Z,5.50
2018-08-19T19:23:36.751Z,6.27
2018-08-19T19:26:06.899Z,5.17
2018-08-19T19:28:36.985Z,5.27
2018-08-19T19:31:12.603Z,5.80
2018-08-19T19:33:42.100Z,5.80
2018-08-19T19:36:16.162Z,5.87
2018-08-19T19:38:50.678Z,6.23
2018-08-19T19:41:26.641Z,6.47
2018-08-19T19:43:56.095Z,5.90
2018-08-19T19:46:25.672Z,5.93
2018-08-19T19:48:55.134Z,5.70
2018-08-19T19:51:24.530Z,5.97
2018-08-19T19:53:53.846Z,6.93
2018-08-19T19:56:23.506Z,6.30
2018-08-19T19:58:53.490Z,5.60
2018-08-19T20:01:22.638Z,6.00
2018-08-19T20:03:55.899Z,7.00
2018-08-19T20:06:25.438Z,6.57
2018-08-19T20:08:55.191Z,6.27
2018-08-19T20:11:31.218Z,6.07
2018-08-19T20:14:02.252Z,5.17
2018-08-19T20:16:32.711Z,6.13
2018-08-19T20:19:02.579Z,6.17
2018-08-19T20:21:35.401Z,6.90
2018-08-19T20:24:07.674Z,6.53
2018-08-19T20:26:37.319Z,6.93
2018-08-19T20:29:07.874Z,6.27
2018-08-19T20:31:39.040Z,7.10
2018-08-19T20:34:08.665Z,6.47
2018-08-19T20:36:40.347Z,6.00
2018-08-19T20:39:12.405Z,6.37
2018-08-19T20:41:42.399Z,6.90
2018-08-19T20:44:12.274Z,8.13
2018-08-19T20:46:47.500Z,6.13
2018-08-19T20:49:16.980Z,6.30
2018-08-19T20:51:46.608Z,6.60
2018-08-19T20:54:16.663Z,6.70
2018-08-19T20:56:48.009Z,6.30
2018-08-19T20:59:24.894Z,7.63
2018-08-19T21:01:56.051Z,8.03
2018-08-19T21:04:25.438Z,7.03
2018-08-19T21:06:55.028Z,6.50
2018-08-19T21:09:25.707Z,6.90
2018-08-19T21:11:55.518Z,7.10
2018-08-19T21:14:24.935Z,7.10
2018-08-19T21:16:54.430Z,7.03
2018-08-19T21:19:23.613Z,6.03
2018-08-19T21:21:53.534Z,6.77
2018-08-19T21:24:23.002Z,8.80
2018-08-19T21:26:57.307Z,7.57
2018-08-19T21:29:26.757Z,7.07
2018-08-19T21:31:56.338Z,8.43
2018-08-19T21:34:26.671Z,6.63
2018-08-19T21:36:55.972Z,7.30
2018-08-19T21:39:25.322Z,6.90
2018-08-19T21:41:55.515Z,7.60
2018-08-19T21:44:24.689Z,7.40
2018-08-19T21:46:53.850Z,7.20
2018-08-19T21:49:23.032Z,7.23
2018-08-19T21:51:52.228Z,8.20
2018-08-19T21:54:21.478Z,7.20
2018-08-19T21:56:51.625Z,7.53
2018-08-19T21:59:24.149Z,8.03
2018-08-19T22:01:57.095Z,7.43
2018-08-19T22:04:26.756Z,6.50
2018-08-19T22:06:56.460Z,7.97
2018-08-19T22:09:33.669Z,6.83
2018-08-19T22:12:03.353Z,7.50
2018-08-19T22:14:33.433Z,7.77
2018-08-19T22:17:08.695Z,7.30
2018-08-19T22:19:38.079Z,7.20
2018-08-19T22:22:07.354Z,7.37
2018-08-19T22:24:36.567Z,8.67
2018-08-19T22:27:10.809Z,7.17
2018-08-19T22:29:40.233Z,6.43
2018-08-19T22:32:09.343Z,7.07
2018-08-19T22:34:39.182Z,7.07
2018-08-19T22:37:08.495Z,7.87
2018-08-19T22:39:37.827Z,8.10
2018-08-19T22:42:07.440Z,8.33
2018-08-19T22:44:36.835Z,7.10
2018-08-19T22:47:06.307Z,6.67
2018-08-19T22:49:35.490Z,7.13
2018-08-19T22:52:36.632Z,8.07
2018-08-19T22:55:05.945Z,7.43
2018-08-19T22:57:35.297Z,7.90
2018-08-19T23:00:07.077Z,9.40
2018-08-19T23:02:36.581Z,6.43
2018-08-19T23:05:05.909Z,8.13
2018-08-19T23:07:36.949Z,8.90
2018-08-19T23:10:09.674Z,7.23
2018-08-19T23:12:41.016Z,8.63
2018-08-19T23:15:21.686Z,7.87
2018-08-19T23:17:51.224Z,8.67
2018-08-19T23:20:20.738Z,8.57
2018-08-19T23:22:50.204Z,9.00
2018-08-19T23:25:19.524Z,8.17
2018-08-19T23:27:48.981Z,7.77
2018-08-19T23:30:18.333Z,7.83
2018-08-19T23:32:47.758Z,8.40
2018-08-19T23:35:17.099Z,7.40
2018-08-19T23:37:46.596Z,9.03
2018-08-19T23:40:15.993Z,7.77
2018-08-19T23:42:46.320Z,9.40
2018-08-19T23:45:15.720Z,8.70
2018-08-19T23:47:45.108Z,7.77
2018-08-19T23:50:14.579Z,10.27
2018-08-19T23:52:44.081Z,8.73
2018-08-19T23:55:13.563Z,8.27
2018-08-19T23:57:42.892Z,8.90
